sensor_id;sensor_type;location;lat;lon;timestamp;pressure;altitude;pressure_sealevel;temperature;humidity
4972;BME280;2501;51.214;6.768;2023-02-28T00:01:33;102709.88;;;1.08;69.75
4972;BME280;2501;51.214;6.768;2023-02-28T00:04:02;102704.81;;;0.98;69.94
4972;BME280;2501;51.214;6.768;2023-02-28T00:06:30;102705.16;;;1.02;70.18
4972;BME280;2501;51.214;6.768;2023-02-28T00:08:59;102699.63;;;0.98;70.21
4972;BME280;2501;51.214;6.768;2023-02-28T00:11:27;102694.28;;;0.73;70.91
4972;BME280;2501;51.214;6.768;2023-02-28T00:13:56;102696.34;;;0.55;71.63
4972;BME280;2501;51.214;6.768;2023-02-28T00:16:24;102700.72;;;0.90;71.64
4972;BME280;2501;51.214;6.768;2023-02-28T00:18:55;102692.84;;;0.88;71.56
4972;BME280;2501;51.214;6.768;2023-02-28T00:21:24;102707.81;;;1.04;70.85
4972;BME280;2501;51.214;6.768;2023-02-28T00:23:52;102705.94;;;1.01;71.09
4972;BME280;2501;51.214;6.768;2023-02-28T00:26:21;102711.88;;;1.00;70.97
4972;BME280;2501;51.214;6.768;2023-02-28T00:28:51;102702.78;;;1.05;70.91
4972;BME280;2501;51.214;6.768;2023-02-28T00:31:19;102709.50;;;0.92;70.87
4972;BME280;2501;51.214;6.768;2023-02-28T00:33:48;102702.44;;;1.01;70.89
4972;BME280;2501;51.214;6.768;2023-02-28T00:36:19;102707.94;;;1.05;70.90
4972;BME280;2501;51.214;6.768;2023-02-28T00:38:48;102703.44;;;0.91;71.14
4972;BME280;2501;51.214;6.768;2023-02-28T00:41:16;102703.72;;;1.18;71.08
4972;BME280;2501;51.214;6.768;2023-02-28T00:43:45;102706.91;;;0.92;71.45
4972;BME280;2501;51.214;6.768;2023-02-28T00:46:13;102702.41;;;0.89;71.56
4972;BME280;2501;51.214;6.768;2023-02-28T00:48:42;102703.91;;;1.09;71.75
4972;BME280;2501;51.214;6.768;2023-02-28T00:51:10;102695.91;;;0.83;71.99
4972;BME280;2501;51.214;6.768;2023-02-28T00:53:41;102696.19;;;0.76;72.48
4972;BME280;2501;51.214;6.768;2023-02-28T00:56:10;102694.88;;;0.81;72.50
4972;BME280;2501;51.214;6.768;2023-02-28T00:58:39;102695.91;;;0.94;72.64
4972;BME280;2501;51.214;6.768;2023-02-28T01:01:08;102700.28;;;0.50;72.82
4972;BME280;2501;51.214;6.768;2023-02-28T01:03:36;102702.63;;;0.47;73.94
4972;BME280;2501;51.214;6.768;2023-02-28T01:06:05;102700.72;;;0.56;73.87
4972;BME280;2501;51.214;6.768;2023-02-28T01:08:33;102706.94;;;0.70;73.27
4972;BME280;2501;51.214;6.768;2023-02-28T01:11:10;102703.16;;;0.65;73.26
4972;BME280;2501;51.214;6.768;2023-02-28T01:13:39;102708.31;;;0.65;73.42
4972;BME280;2501;51.214;6.768;2023-02-28T01:16:08;102702.53;;;0.57;73.17
4972;BME280;2501;51.214;6.768;2023-02-28T01:18:37;102705.00;;;0.56;73.43
4972;BME280;2501;51.214;6.768;2023-02-28T01:21:06;102703.81;;;0.62;72.87
4972;BME280;2501;51.214;6.768;2023-02-28T01:23:35;102696.19;;;0.64;72.67
4972;BME280;2501;51.214;6.768;2023-02-28T01:26:05;102702.00;;;0.61;72.63
4972;BME280;2501;51.214;6.768;2023-02-28T01:28:36;102706.44;;;0.52;73.30
4972;BME280;2501;51.214;6.768;2023-02-28T01:31:04;102701.28;;;0.52;73.22
4972;BME280;2501;51.214;6.768;2023-02-28T01:33:33;102699.16;;;0.80;72.54
4972;BME280;2501;51.214;6.768;2023-02-28T01:36:05;102693.56;;;0.86;72.03
4972;BME280;2501;51.214;6.768;2023-02-28T01:38:33;102698.25;;;0.91;71.22
4972;BME280;2501;51.214;6.768;2023-02-28T01:41:02;102695.56;;;0.90;70.98
4972;BME280;2501;51.214;6.768;2023-02-28T01:43:35;102694.13;;;0.93;70.85
4972;BME280;2501;51.214;6.768;2023-02-28T01:46:23;102696.34;;;0.89;70.94
4972;BME280;2501;51.214;6.768;2023-02-28T01:48:53;102697.13;;;0.88;71.18
4972;BME280;2501;51.214;6.768;2023-02-28T01:51:26;102689.28;;;0.86;71.48
4972;BME280;2501;51.214;6.768;2023-02-28T01:54:00;102693.19;;;0.81;72.17
4972;BME280;2501;51.214;6.768;2023-02-28T01:56:33;102694.63;;;0.78;72.78
4972;BME280;2501;51.214;6.768;2023-02-28T01:59:03;102702.81;;;0.72;73.33
4972;BME280;2501;51.214;6.768;2023-02-28T02:01:37;102701.78;;;0.70;73.60
4972;BME280;2501;51.214;6.768;2023-02-28T02:04:08;102692.56;;;0.62;74.00
4972;BME280;2501;51.214;6.768;2023-02-28T02:06:39;102697.25;;;0.56;74.61
4972;BME280;2501;51.214;6.768;2023-02-28T02:09:08;102688.59;;;0.55;74.37
4972;BME280;2501;51.214;6.768;2023-02-28T02:11:37;102688.47;;;0.54;74.81
4972;BME280;2501;51.214;6.768;2023-02-28T02:14:24;102686.94;;;0.56;75.06
4972;BME280;2501;51.214;6.768;2023-02-28T02:17:09;102689.84;;;0.49;74.83
4972;BME280;2501;51.214;6.768;2023-02-28T02:20:03;102686.34;;;0.48;75.25
4972;BME280;2501;51.214;6.768;2023-02-28T02:23:07;102686.88;;;0.44;75.12
4972;BME280;2501;51.214;6.768;2023-02-28T02:25:42;102688.09;;;0.38;75.69
4972;BME280;2501;51.214;6.768;2023-02-28T02:28:27;102683.38;;;0.32;76.03
4972;BME280;2501;51.214;6.768;2023-02-28T02:31:17;102684.16;;;0.31;76.28
4972;BME280;2501;51.214;6.768;2023-02-28T02:34:24;102685.72;;;0.29;76.80
4972;BME280;2501;51.214;6.768;2023-02-28T02:37:03;102684.19;;;0.21;77.30
4972;BME280;2501;51.214;6.768;2023-02-28T02:39:38;102684.53;;;0.14;77.78
4972;BME280;2501;51.214;6.768;2023-02-28T02:42:15;102676.22;;;-0.04;78.20
4972;BME280;2501;51.214;6.768;2023-02-28T02:44:48;102680.66;;;-0.13;78.70
4972;BME280;2501;51.214;6.768;2023-02-28T02:47:22;102670.63;;;0.02;79.11
4972;BME280;2501;51.214;6.768;2023-02-28T02:49:57;102669.84;;;0.03;78.78
4972;BME280;2501;51.214;6.768;2023-02-28T02:52:32;102668.75;;;-0.01;79.12
4972;BME280;2501;51.214;6.768;2023-02-28T02:55:03;102667.47;;;-0.06;79.65
4972;BME280;2501;51.214;6.768;2023-02-28T02:57:40;102669.16;;;-0.07;79.79
4972;BME280;2501;51.214;6.768;2023-02-28T03:00:11;102665.28;;;-0.12;80.06
4972;BME280;2501;51.214;6.768;2023-02-28T03:02:41;102671.28;;;-0.23;80.71
4972;BME280;2501;51.214;6.768;2023-02-28T03:05:19;102669.56;;;-0.44;80.90
4972;BME280;2501;51.214;6.768;2023-02-28T03:07:48;102674.66;;;-0.24;81.15
4972;BME280;2501;51.214;6.768;2023-02-28T03:10:35;102675.41;;;-0.25;81.13
4972;BME280;2501;51.214;6.768;2023-02-28T03:13:13;102677.25;;;-0.34;81.33
4972;BME280;2501;51.214;6.768;2023-02-28T03:15:55;102675.47;;;-0.35;81.57
4972;BME280;2501;51.214;6.768;2023-02-28T03:18:32;102668.25;;;-0.39;81.84
4972;BME280;2501;51.214;6.768;2023-02-28T03:21:14;102679.94;;;-0.32;81.62
4972;BME280;2501;51.214;6.768;2023-02-28T03:23:53;102673.56;;;-0.38;81.62
4972;BME280;2501;51.214;6.768;2023-02-28T03:26:27;102675.09;;;-0.40;82.01
4972;BME280;2501;51.214;6.768;2023-02-28T03:29:02;102670.72;;;-0.41;81.93
4972;BME280;2501;51.214;6.768;2023-02-28T03:31:36;102658.47;;;-0.43;81.85
4972;BME280;2501;51.214;6.768;2023-02-28T03:34:09;102658.75;;;-0.50;81.99
4972;BME280;2501;51.214;6.768;2023-02-28T03:36:45;102657.19;;;-0.48;82.08
4972;BME280;2501;51.214;6.768;2023-02-28T03:39:18;102664.72;;;-0.61;81.76
4972;BME280;2501;51.214;6.768;2023-02-28T03:41:51;102666.22;;;-0.43;81.13
4972;BME280;2501;51.214;6.768;2023-02-28T03:44:24;102667.25;;;-0.41;80.68
4972;BME280;2501;51.214;6.768;2023-02-28T03:46:57;102667.13;;;-0.43;80.21
4972;BME280;2501;51.214;6.768;2023-02-28T03:49:31;102667.50;;;-0.38;79.73
4972;BME280;2501;51.214;6.768;2023-02-28T03:52:06;102671.88;;;-0.47;78.79
4972;BME280;2501;51.214;6.768;2023-02-28T03:54:38;102670.84;;;-0.39;78.20
4972;BME280;2501;51.214;6.768;2023-02-28T03:57:12;102675.34;;;-0.37;77.97
4972;BME280;2501;51.214;6.768;2023-02-28T03:59:46;102673.41;;;-0.39;77.22
4972;BME280;2501;51.214;6.768;2023-02-28T04:02:16;102681.16;;;-0.49;77.00
4972;BME280;2501;51.214;6.768;2023-02-28T04:04:44;102678.97;;;-0.45;77.15
4972;BME280;2501;51.214;6.768;2023-02-28T04:07:17;102674.59;;;-0.46;77.18
4972;BME280;2501;51.214;6.768;2023-02-28T04:09:46;102675.00;;;-0.51;77.13
4972;BME280;2501;51.214;6.768;2023-02-28T04:12:14;102683.41;;;-0.54;77.27
4972;BME280;2501;51.214;6.768;2023-02-28T04:14:43;102691.41;;;-0.61;77.40
4972;BME280;2501;51.214;6.768;2023-02-28T04:17:11;102681.75;;;-0.63;77.74
4972;BME280;2501;51.214;6.768;2023-02-28T04:19:39;102688.44;;;-0.55;77.52
4972;BME280;2501;51.214;6.768;2023-02-28T04:22:09;102679.53;;;-0.59;77.36
4972;BME280;2501;51.214;6.768;2023-02-28T04:24:40;102685.22;;;-0.63;77.42
4972;BME280;2501;51.214;6.768;2023-02-28T04:27:09;102686.00;;;-0.64;77.52
4972;BME280;2501;51.214;6.768;2023-02-28T04:29:38;102687.66;;;-0.64;77.38
4972;BME280;2501;51.214;6.768;2023-02-28T04:32:10;102686.50;;;-0.68;77.19
4972;BME280;2501;51.214;6.768;2023-02-28T04:34:39;102685.59;;;-0.68;77.26
4972;BME280;2501;51.214;6.768;2023-02-28T04:37:07;102696.22;;;-0.76;77.42
4972;BME280;2501;51.214;6.768;2023-02-28T04:39:36;102691.78;;;-0.66;77.19
4972;BME280;2501;51.214;6.768;2023-02-28T04:42:07;102689.22;;;-0.66;77.16
4972;BME280;2501;51.214;6.768;2023-02-28T04:44:36;102694.28;;;-0.78;76.99
4972;BME280;2501;51.214;6.768;2023-02-28T04:47:04;102694.63;;;-0.63;76.78
4972;BME280;2501;51.214;6.768;2023-02-28T04:49:33;102692.44;;;-0.69;76.68
4972;BME280;2501;51.214;6.768;2023-02-28T04:52:02;102688.09;;;-0.70;76.29
4972;BME280;2501;51.214;6.768;2023-02-28T04:54:30;102696.03;;;-0.67;75.95
4972;BME280;2501;51.214;6.768;2023-02-28T04:56:58;102698.50;;;-0.68;75.43
4972;BME280;2501;51.214;6.768;2023-02-28T04:59:29;102696.28;;;-0.64;74.87
4972;BME280;2501;51.214;6.768;2023-02-28T05:01:58;102690.50;;;-0.61;73.85
4972;BME280;2501;51.214;6.768;2023-02-28T05:04:32;102697.97;;;-0.64;72.97
4972;BME280;2501;51.214;6.768;2023-02-28T05:07:00;102692.81;;;-0.54;72.15
4972;BME280;2501;51.214;6.768;2023-02-28T05:09:29;102697.19;;;-0.53;71.22
4972;BME280;2501;51.214;6.768;2023-02-28T05:11:58;102702.75;;;-0.59;70.75
4972;BME280;2501;51.214;6.768;2023-02-28T05:14:29;102695.78;;;-0.60;70.86
4972;BME280;2501;51.214;6.768;2023-02-28T05:16:57;102697.19;;;-0.63;70.93
4972;BME280;2501;51.214;6.768;2023-02-28T05:19:26;102704.06;;;-0.74;70.86
4972;BME280;2501;51.214;6.768;2023-02-28T05:21:55;102696.16;;;-0.65;71.24
4972;BME280;2501;51.214;6.768;2023-02-28T05:24:23;102692.81;;;-0.54;70.86
4972;BME280;2501;51.214;6.768;2023-02-28T05:26:53;102699.91;;;-0.62;70.05
4972;BME280;2501;51.214;6.768;2023-02-28T05:29:22;102691.34;;;-0.51;69.61
4972;BME280;2501;51.214;6.768;2023-02-28T05:31:53;102688.00;;;-0.50;68.85
4972;BME280;2501;51.214;6.768;2023-02-28T05:34:22;102697.66;;;-0.47;68.50
4972;BME280;2501;51.214;6.768;2023-02-28T05:36:50;102695.75;;;-0.50;68.30
4972;BME280;2501;51.214;6.768;2023-02-28T05:39:18;102705.16;;;-0.50;68.14
4972;BME280;2501;51.214;6.768;2023-02-28T05:41:47;102704.94;;;-0.53;68.29
4972;BME280;2501;51.214;6.768;2023-02-28T05:44:16;102705.69;;;-0.64;68.74
4972;BME280;2501;51.214;6.768;2023-02-28T05:46:44;102705.97;;;-0.61;68.94
4972;BME280;2501;51.214;6.768;2023-02-28T05:49:15;102716.53;;;-0.58;69.97
4972;BME280;2501;51.214;6.768;2023-02-28T05:51:44;102712.28;;;-0.68;71.58
4972;BME280;2501;51.214;6.768;2023-02-28T05:54:12;102717.84;;;-0.74;73.07
4972;BME280;2501;51.214;6.768;2023-02-28T05:56:41;102718.50;;;-0.86;73.88
4972;BME280;2501;51.214;6.768;2023-02-28T05:59:11;102714.38;;;-0.84;74.13
4972;BME280;2501;51.214;6.768;2023-02-28T06:01:40;102717.75;;;-0.95;74.09
4972;BME280;2501;51.214;6.768;2023-02-28T06:04:18;102717.22;;;-0.91;73.91
4972;BME280;2501;51.214;6.768;2023-02-28T06:06:47;102723.53;;;-0.98;73.38
4972;BME280;2501;51.214;6.768;2023-02-28T06:09:16;102724.06;;;-0.92;73.50
4972;BME280;2501;51.214;6.768;2023-02-28T06:11:45;102725.59;;;-0.94;73.61
4972;BME280;2501;51.214;6.768;2023-02-28T06:14:15;102731.75;;;-1.02;73.65
4972;BME280;2501;51.214;6.768;2023-02-28T06:16:44;102732.66;;;-1.01;73.69
4972;BME280;2501;51.214;6.768;2023-02-28T06:19:15;102739.25;;;-1.25;74.01
4972;BME280;2501;51.214;6.768;2023-02-28T06:21:44;102733.22;;;-1.06;73.98
4972;BME280;2501;51.214;6.768;2023-02-28T06:24:13;102742.34;;;-0.99;73.75
4972;BME280;2501;51.214;6.768;2023-02-28T06:26:41;102744.13;;;-0.98;72.82
4972;BME280;2501;51.214;6.768;2023-02-28T06:29:10;102748.13;;;-0.91;72.08
4972;BME280;2501;51.214;6.768;2023-02-28T06:31:42;102741.56;;;-0.88;70.73
4972;BME280;2501;51.214;6.768;2023-02-28T06:34:11;102737.06;;;-0.90;69.81
4972;BME280;2501;51.214;6.768;2023-02-28T06:36:42;102742.84;;;-0.83;68.69
4972;BME280;2501;51.214;6.768;2023-02-28T06:39:10;102745.66;;;-0.80;68.08
4972;BME280;2501;51.214;6.768;2023-02-28T06:41:39;102749.41;;;-0.76;67.32
4972;BME280;2501;51.214;6.768;2023-02-28T06:44:11;102747.88;;;-0.74;66.78
4972;BME280;2501;51.214;6.768;2023-02-28T06:46:41;102752.72;;;-0.67;66.08
4972;BME280;2501;51.214;6.768;2023-02-28T06:49:10;102754.41;;;-0.67;65.70
4972;BME280;2501;51.214;6.768;2023-02-28T06:51:44;102755.44;;;-0.65;65.83
4972;BME280;2501;51.214;6.768;2023-02-28T06:54:13;102761.38;;;-0.66;65.90
4972;BME280;2501;51.214;6.768;2023-02-28T06:56:42;102759.69;;;-0.66;65.83
4972;BME280;2501;51.214;6.768;2023-02-28T06:59:10;102764.47;;;-0.60;65.50
4972;BME280;2501;51.214;6.768;2023-02-28T07:01:39;102757.50;;;-0.61;64.70
4972;BME280;2501;51.214;6.768;2023-02-28T07:04:08;102768.34;;;-0.55;64.13
4972;BME280;2501;51.214;6.768;2023-02-28T07:06:38;102774.63;;;-0.52;63.77
4972;BME280;2501;51.214;6.768;2023-02-28T07:09:09;102772.94;;;-0.51;63.27
4972;BME280;2501;51.214;6.768;2023-02-28T07:11:40;102767.41;;;-0.46;62.79
4972;BME280;2501;51.214;6.768;2023-02-28T07:14:09;102767.91;;;-0.40;61.33
4972;BME280;2501;51.214;6.768;2023-02-28T07:16:37;102769.28;;;-0.33;61.01
4972;BME280;2501;51.214;6.768;2023-02-28T07:19:06;102764.38;;;-0.30;60.21
4972;BME280;2501;51.214;6.768;2023-02-28T07:21:34;102769.28;;;-0.23;59.65
4972;BME280;2501;51.214;6.768;2023-02-28T07:24:03;102765.16;;;-0.21;59.02
4972;BME280;2501;51.214;6.768;2023-02-28T07:26:34;102769.22;;;-0.13;58.25
4972;BME280;2501;51.214;6.768;2023-02-28T07:29:03;102772.97;;;-0.09;57.62
4972;BME280;2501;51.214;6.768;2023-02-28T07:31:31;102781.75;;;-0.07;57.54
4972;BME280;2501;51.214;6.768;2023-02-28T07:33:59;102771.81;;;-0.03;56.65
4972;BME280;2501;51.214;6.768;2023-02-28T07:36:28;102781.56;;;0.02;56.44
4972;BME280;2501;51.214;6.768;2023-02-28T07:38:58;102768.78;;;0.03;56.40
4972;BME280;2501;51.214;6.768;2023-02-28T07:41:26;102773.66;;;0.10;55.79
4972;BME280;2501;51.214;6.768;2023-02-28T07:44:01;102773.78;;;0.12;55.76
4972;BME280;2501;51.214;6.768;2023-02-28T07:46:29;102777.66;;;0.17;55.57
4972;BME280;2501;51.214;6.768;2023-02-28T07:49:00;102775.28;;;0.20;55.18
4972;BME280;2501;51.214;6.768;2023-02-28T07:51:29;102776.16;;;0.30;55.08
4972;BME280;2501;51.214;6.768;2023-02-28T07:53:58;102781.91;;;0.38;54.82
4972;BME280;2501;51.214;6.768;2023-02-28T07:56:26;102785.66;;;0.42;54.10
4972;BME280;2501;51.214;6.768;2023-02-28T07:58:55;102793.09;;;0.49;53.88
4972;BME280;2501;51.214;6.768;2023-02-28T08:01:26;102790.09;;;0.54;53.67
4972;BME280;2501;51.214;6.768;2023-02-28T08:03:54;102792.38;;;0.61;53.03
4972;BME280;2501;51.214;6.768;2023-02-28T08:06:24;102789.06;;;0.74;52.67
4972;BME280;2501;51.214;6.768;2023-02-28T08:08:53;102778.44;;;0.81;51.82
4972;BME280;2501;51.214;6.768;2023-02-28T08:11:22;102784.84;;;1.20;51.03
4972;BME280;2501;51.214;6.768;2023-02-28T08:13:50;102790.09;;;1.10;50.52
4972;BME280;2501;51.214;6.768;2023-02-28T08:16:18;102780.34;;;1.17;49.73
4972;BME280;2501;51.214;6.768;2023-02-28T08:18:50;102785.53;;;1.17;49.54
4972;BME280;2501;51.214;6.768;2023-02-28T08:21:19;102788.28;;;1.09;49.61
4972;BME280;2501;51.214;6.768;2023-02-28T08:23:49;102782.06;;;1.28;49.13
4972;BME280;2501;51.214;6.768;2023-02-28T08:26:19;102783.97;;;1.19;49.18
4972;BME280;2501;51.214;6.768;2023-02-28T08:28:48;102783.84;;;1.29;48.97
4972;BME280;2501;51.214;6.768;2023-02-28T08:31:17;102797.19;;;1.12;49.05
4972;BME280;2501;51.214;6.768;2023-02-28T08:33:46;102787.53;;;1.21;48.66
4972;BME280;2501;51.214;6.768;2023-02-28T08:36:19;102796.19;;;1.22;48.89
4972;BME280;2501;51.214;6.768;2023-02-28T08:38:47;102799.91;;;1.25;48.54
4972;BME280;2501;51.214;6.768;2023-02-28T08:41:16;102790.41;;;1.59;48.38
4972;BME280;2501;51.214;6.768;2023-02-28T08:43:44;102791.53;;;1.63;48.35
4972;BME280;2501;51.214;6.768;2023-02-28T08:46:13;102789.19;;;1.66;47.57
4972;BME280;2501;51.214;6.768;2023-02-28T08:48:42;102786.72;;;1.79;47.34
4972;BME280;2501;51.214;6.768;2023-02-28T08:51:12;102780.63;;;1.44;48.03
4972;BME280;2501;51.214;6.768;2023-02-28T08:53:44;102783.22;;;1.67;47.22
4972;BME280;2501;51.214;6.768;2023-02-28T08:56:15;102782.44;;;1.68;47.08
4972;BME280;2501;51.214;6.768;2023-02-28T08:58:46;102788.94;;;1.74;46.93
4972;BME280;2501;51.214;6.768;2023-02-28T09:01:16;102785.25;;;1.94;46.29
4972;BME280;2501;51.214;6.768;2023-02-28T09:03:47;102783.19;;;2.14;45.54
4972;BME280;2501;51.214;6.768;2023-02-28T09:06:17;102781.44;;;2.01;45.92
4972;BME280;2501;51.214;6.768;2023-02-28T09:08:49;102782.44;;;1.91;45.56
4972;BME280;2501;51.214;6.768;2023-02-28T09:11:18;102780.63;;;2.02;45.34
4972;BME280;2501;51.214;6.768;2023-02-28T09:13:47;102776.91;;;2.22;45.09
4972;BME280;2501;51.214;6.768;2023-02-28T09:16:16;102778.59;;;2.09;45.22
4972;BME280;2501;51.214;6.768;2023-02-28T09:18:45;102775.06;;;2.32;44.72
4972;BME280;2501;51.214;6.768;2023-02-28T09:21:16;102773.78;;;2.02;45.21
4972;BME280;2501;51.214;6.768;2023-02-28T09:23:46;102769.50;;;1.91;45.60
4972;BME280;2501;51.214;6.768;2023-02-28T09:26:19;102765.56;;;1.85;45.00
4972;BME280;2501;51.214;6.768;2023-02-28T09:28:49;102767.13;;;1.94;45.01
4972;BME280;2501;51.214;6.768;2023-02-28T09:31:20;102760.16;;;1.93;44.86
4972;BME280;2501;51.214;6.768;2023-02-28T09:33:50;102769.63;;;2.04;44.47
4972;BME280;2501;51.214;6.768;2023-02-28T09:36:19;102771.31;;;2.04;44.45
4972;BME280;2501;51.214;6.768;2023-02-28T09:38:48;102774.91;;;2.06;44.08
4972;BME280;2501;51.214;6.768;2023-02-28T09:41:22;102764.22;;;1.90;44.03
4972;BME280;2501;51.214;6.768;2023-02-28T09:43:53;102762.53;;;2.02;44.39
4972;BME280;2501;51.214;6.768;2023-02-28T09:46:31;102769.66;;;2.41;43.30
4972;BME280;2501;51.214;6.768;2023-02-28T09:49:04;102764.59;;;2.31;43.97
4972;BME280;2501;51.214;6.768;2023-02-28T09:51:43;102769.13;;;2.22;44.49
4972;BME280;2501;51.214;6.768;2023-02-28T09:54:16;102753.75;;;2.00;44.40
4972;BME280;2501;51.214;6.768;2023-02-28T09:56:51;102762.34;;;2.35;44.36
4972;BME280;2501;51.214;6.768;2023-02-28T09:59:41;102750.25;;;2.48;43.93
4972;BME280;2501;51.214;6.768;2023-02-28T10:02:29;102751.25;;;2.50;44.00
4972;BME280;2501;51.214;6.768;2023-02-28T10:05:10;102752.59;;;2.56;44.22
4972;BME280;2501;51.214;6.768;2023-02-28T10:07:50;102755.50;;;2.86;43.52
4972;BME280;2501;51.214;6.768;2023-02-28T10:10:28;102748.53;;;2.60;43.50
4972;BME280;2501;51.214;6.768;2023-02-28T10:13:03;102756.09;;;3.06;43.45
4972;BME280;2501;51.214;6.768;2023-02-28T10:15:34;102761.41;;;2.96;42.96
4972;BME280;2501;51.214;6.768;2023-02-28T10:18:06;102750.06;;;2.69;43.46
4972;BME280;2501;51.214;6.768;2023-02-28T10:20:39;102753.56;;;2.70;43.66
4972;BME280;2501;51.214;6.768;2023-02-28T10:23:13;102751.25;;;3.24;43.23
4972;BME280;2501;51.214;6.768;2023-02-28T10:25:50;102740.78;;;3.49;42.95
4972;BME280;2501;51.214;6.768;2023-02-28T10:28:25;102747.84;;;3.25;42.81
4972;BME280;2501;51.214;6.768;2023-02-28T10:30:54;102742.47;;;3.48;42.42
4972;BME280;2501;51.214;6.768;2023-02-28T10:33:25;102740.38;;;3.82;42.51
4972;BME280;2501;51.214;6.768;2023-02-28T10:35:55;102742.06;;;4.08;41.38
4972;BME280;2501;51.214;6.768;2023-02-28T10:38:25;102744.06;;;3.33;41.86
4972;BME280;2501;51.214;6.768;2023-02-28T10:41:04;102742.47;;;4.14;41.30
4972;BME280;2501;51.214;6.768;2023-02-28T10:43:37;102735.31;;;3.71;41.61
4972;BME280;2501;51.214;6.768;2023-02-28T10:46:13;102743.00;;;3.43;42.50
4972;BME280;2501;51.214;6.768;2023-02-28T10:49:01;102741.78;;;4.04;42.06
4972;BME280;2501;51.214;6.768;2023-02-28T10:51:35;102733.75;;;4.27;41.79
4972;BME280;2501;51.214;6.768;2023-02-28T10:54:05;102735.28;;;4.10;41.38
4972;BME280;2501;51.214;6.768;2023-02-28T10:56:34;102728.69;;;4.15;41.77
4972;BME280;2501;51.214;6.768;2023-02-28T10:59:27;102723.44;;;4.57;41.15
4972;BME280;2501;51.214;6.768;2023-02-28T11:01:56;102711.81;;;4.50;41.24
4972;BME280;2501;51.214;6.768;2023-02-28T11:04:36;102722.97;;;4.21;41.71
4972;BME280;2501;51.214;6.768;2023-02-28T11:07:17;102712.41;;;4.46;41.98
4972;BME280;2501;51.214;6.768;2023-02-28T11:09:48;102714.97;;;3.77;41.94
4972;BME280;2501;51.214;6.768;2023-02-28T11:12:20;102713.91;;;4.01;40.94
4972;BME280;2501;51.214;6.768;2023-02-28T11:14:54;102720.03;;;3.89;41.30
4972;BME280;2501;51.214;6.768;2023-02-28T11:17:26;102710.13;;;3.83;41.44
4972;BME280;2501;51.214;6.768;2023-02-28T11:19:57;102714.59;;;4.12;41.35
4972;BME280;2501;51.214;6.768;2023-02-28T11:22:31;102713.03;;;3.88;41.70
4972;BME280;2501;51.214;6.768;2023-02-28T11:25:02;102712.84;;;3.84;41.45
4972;BME280;2501;51.214;6.768;2023-02-28T11:27:45;102710.16;;;3.43;41.92
4972;BME280;2501;51.214;6.768;2023-02-28T11:30:41;102718.16;;;3.73;42.05
4972;BME280;2501;51.214;6.768;2023-02-28T11:33:37;102708.94;;;3.65;42.11
4972;BME280;2501;51.214;6.768;2023-02-28T11:36:12;102713.16;;;3.63;41.84
4972;BME280;2501;51.214;6.768;2023-02-28T11:38:42;102704.94;;;3.30;42.77
4972;BME280;2501;51.214;6.768;2023-02-28T11:44:14;102700.47;;;3.67;42.68
4972;BME280;2501;51.214;6.768;2023-02-28T11:46:51;102707.75;;;3.73;42.38
4972;BME280;2501;51.214;6.768;2023-02-28T11:49:30;102710.72;;;4.05;41.76
4972;BME280;2501;51.214;6.768;2023-02-28T11:52:02;102709.88;;;4.19;41.26
4972;BME280;2501;51.214;6.768;2023-02-28T11:54:59;102709.44;;;3.85;41.42
4972;BME280;2501;51.214;6.768;2023-02-28T11:57:38;102706.72;;;4.10;41.29
4972;BME280;2501;51.214;6.768;2023-02-28T12:00:24;102707.50;;;4.09;41.38
4972;BME280;2501;51.214;6.768;2023-02-28T12:03:06;102700.06;;;4.29;41.26
4972;BME280;2501;51.214;6.768;2023-02-28T12:05:44;102712.16;;;4.28;40.79
4972;BME280;2501;51.214;6.768;2023-02-28T12:08:26;102708.63;;;4.00;41.05
4972;BME280;2501;51.214;6.768;2023-02-28T12:11:04;102697.53;;;4.02;41.81
4972;BME280;2501;51.214;6.768;2023-02-28T12:13:43;102698.53;;;4.45;41.32
4972;BME280;2501;51.214;6.768;2023-02-28T12:16:32;102688.38;;;4.78;40.84
4972;BME280;2501;51.214;6.768;2023-02-28T12:19:18;102697.22;;;4.39;41.33
4972;BME280;2501;51.214;6.768;2023-02-28T12:22:20;102683.06;;;4.34;41.93
4972;BME280;2501;51.214;6.768;2023-02-28T12:25:15;102676.22;;;4.21;42.27
4972;BME280;2501;51.214;6.768;2023-02-28T12:27:49;102688.19;;;4.19;42.45
4972;BME280;2501;51.214;6.768;2023-02-28T12:30:23;102687.25;;;4.04;43.01
4972;BME280;2501;51.214;6.768;2023-02-28T12:32:56;102685.00;;;3.69;43.25
4972;BME280;2501;51.214;6.768;2023-02-28T12:35:32;102685.09;;;3.70;43.59
4972;BME280;2501;51.214;6.768;2023-02-28T12:38:05;102678.31;;;3.72;43.60
4972;BME280;2501;51.214;6.768;2023-02-28T12:40:43;102664.66;;;3.75;43.86
4972;BME280;2501;51.214;6.768;2023-02-28T12:43:14;102672.72;;;3.79;43.80
4972;BME280;2501;51.214;6.768;2023-02-28T12:45:46;102659.31;;;3.87;43.49
4972;BME280;2501;51.214;6.768;2023-02-28T12:48:24;102645.59;;;3.74;43.86
4972;BME280;2501;51.214;6.768;2023-02-28T12:50:57;102653.63;;;3.92;43.40
4972;BME280;2501;51.214;6.768;2023-02-28T12:53:28;102641.00;;;4.11;43.53
4972;BME280;2501;51.214;6.768;2023-02-28T12:56:09;102653.09;;;4.11;43.00
4972;BME280;2501;51.214;6.768;2023-02-28T12:58:45;102640.69;;;3.79;43.38
4972;BME280;2501;51.214;6.768;2023-02-28T13:01:36;102628.28;;;3.88;43.61
4972;BME280;2501;51.214;6.768;2023-02-28T13:04:32;102633.97;;;3.82;43.64
4972;BME280;2501;51.214;6.768;2023-02-28T13:10:04;102624.44;;;4.09;43.24
4972;BME280;2501;51.214;6.768;2023-02-28T13:12:34;102612.22;;;4.36;42.90
4972;BME280;2501;51.214;6.768;2023-02-28T13:15:07;102620.31;;;4.13;42.57
4972;BME280;2501;51.214;6.768;2023-02-28T13:17:40;102613.13;;;4.09;42.81
4972;BME280;2501;51.214;6.768;2023-02-28T13:20:16;102607.59;;;4.17;42.60
4972;BME280;2501;51.214;6.768;2023-02-28T13:22:50;102607.09;;;4.38;42.30
4972;BME280;2501;51.214;6.768;2023-02-28T13:34:33;102599.50;;;4.41;42.65
4972;BME280;2501;51.214;6.768;2023-02-28T13:40:30;102596.47;;;4.48;41.96
4972;BME280;2501;51.214;6.768;2023-02-28T13:43:02;102589.91;;;4.40;42.08
4972;BME280;2501;51.214;6.768;2023-02-28T13:45:31;102596.63;;;4.51;42.44
4972;BME280;2501;51.214;6.768;2023-02-28T13:48:04;102595.69;;;4.64;42.05
4972;BME280;2501;51.214;6.768;2023-02-28T13:50:43;102593.91;;;4.63;42.06
4972;BME280;2501;51.214;6.768;2023-02-28T13:53:34;102586.97;;;5.07;41.65
4972;BME280;2501;51.214;6.768;2023-02-28T13:56:22;102590.72;;;6.21;39.61
4972;BME280;2501;51.214;6.768;2023-02-28T13:58:55;102577.63;;;6.20;39.31
4972;BME280;2501;51.214;6.768;2023-02-28T14:01:42;102581.94;;;6.03;39.44
4972;BME280;2501;51.214;6.768;2023-02-28T14:07:20;102564.06;;;7.30;38.06
4972;BME280;2501;51.214;6.768;2023-02-28T14:09:58;102568.16;;;6.22;39.21